createdAt,value
2023-05-04T00:00:26.967Z,44.70
2023-05-04T00:03:14.069Z,48.40
2023-05-04T00:05:44.352Z,49.70
2023-05-04T00:08:19.186Z,51.10
2023-05-04T00:13:17.239Z,53.70
2023-05-04T00:15:46.920Z,54.10
2023-05-04T00:18:27.150Z,51.70
2023-05-04T00:21:02.405Z,55.20
2023-05-04T00:23:38.655Z,57.70
2023-05-04T00:26:08.465Z,57.60
2023-05-04T00:28:38.078Z,56.10
2023-05-04T00:31:09.258Z,54.40
2023-05-04T00:34:01.646Z,52.70
2023-05-04T00:39:04.043Z,49.80
2023-05-04T00:41:36.025Z,48.50
2023-05-04T00:44:06.449Z,47.90
2023-05-04T00:46:38.638Z,49.00
2023-05-04T00:49:10.153Z,51.50
2023-05-04T00:51:46.900Z,51.40
2023-05-04T00:54:19.763Z,51.60
2023-05-04T00:56:52.791Z,51.70
2023-05-04T00:59:25.676Z,50.60
2023-05-04T01:02:18.222Z,52.20
2023-05-04T01:04:55.807Z,55.40
2023-05-04T01:07:52.670Z,56.50
2023-05-04T01:10:55.453Z,54.50
2023-05-04T01:13:26.184Z,53.00
2023-05-04T01:15:58.962Z,54.70
2023-05-04T01:18:40.550Z,52.60
2023-05-04T01:21:14.364Z,55.20
2023-05-04T01:23:44.077Z,56.80
2023-05-04T01:26:27.634Z,55.90
2023-05-04T01:29:16.254Z,55.80
2023-05-04T01:31:49.662Z,53.70
2023-05-04T01:34:19.815Z,57.70
2023-05-04T01:36:49.582Z,53.60
2023-05-04T01:39:18.378Z,52.80
2023-05-04T01:41:47.347Z,55.10
2023-05-04T01:44:17.981Z,54.10
2023-05-04T01:46:53.638Z,52.50
2023-05-04T01:49:26.721Z,55.00
2023-05-04T01:51:58.694Z,51.70
2023-05-04T01:54:34.751Z,54.60
2023-05-04T01:57:07.838Z,53.50
2023-05-04T01:59:37.020Z,52.80
2023-05-04T02:02:06.985Z,53.40
2023-05-04T02:04:46.190Z,53.40
2023-05-04T02:07:25.838Z,52.20
2023-05-04T02:10:03.174Z,54.30
2023-05-04T02:12:33.235Z,51.40
2023-05-04T02:15:07.500Z,53.80
2023-05-04T02:17:39.880Z,53.10
2023-05-04T02:20:15.682Z,52.90
2023-05-04T02:23:01.254Z,51.80
2023-05-04T02:25:42.118Z,52.30
2023-05-04T02:28:14.276Z,54.50
2023-05-04T02:30:44.304Z,54.10
2023-05-04T02:33:16.874Z,55.20
2023-05-04T02:38:28.672Z,57.40
2023-05-04T02:40:58.089Z,56.00
2023-05-04T02:43:27.796Z,55.50
2023-05-04T02:46:05.509Z,55.10
2023-05-04T02:48:35.002Z,54.00
2023-05-04T02:51:06.332Z,51.60
2023-05-04T02:53:41.266Z,54.80
2023-05-04T02:56:10.576Z,52.60
2023-05-04T02:58:39.350Z,49.70
2023-05-04T03:01:08.496Z,49.00
2023-05-04T03:03:37.848Z,48.90
2023-05-04T03:06:12.891Z,47.20
2023-05-04T03:08:42.200Z,46.30
2023-05-04T03:11:27.665Z,50.90
2023-05-04T03:14:13.891Z,48.60
2023-05-04T03:16:43.118Z,46.60
2023-05-04T03:19:12.060Z,48.50
2023-05-04T03:21:43.724Z,45.90
2023-05-04T03:24:13.538Z,47.70
2023-05-04T03:26:54.497Z,46.20
2023-05-04T03:29:33.213Z,47.10
2023-05-04T03:32:07.516Z,46.60
2023-05-04T03:34:37.545Z,47.60
2023-05-04T03:37:13.501Z,48.50
2023-05-04T03:39:45.465Z,53.40
2023-05-04T03:42:13.847Z,51.50
2023-05-04T03:44:47.152Z,49.80
2023-05-04T03:47:21.058Z,51.30
2023-05-04T03:49:55.260Z,49.30
2023-05-04T03:52:24.464Z,48.30
2023-05-04T03:54:53.557Z,44.30
2023-05-04T03:57:26.863Z,45.80
2023-05-04T04:00:01.794Z,45.20
2023-05-04T04:02:33.496Z,47.20
2023-05-04T04:05:03.679Z,46.50
2023-05-04T04:08:08.922Z,48.00
2023-05-04T04:10:41.167Z,46.50
2023-05-04T04:13:11.437Z,47.10
2023-05-04T04:15:44.761Z,48.00
2023-05-04T04:18:18.997Z,50.70
2023-05-04T04:20:50.754Z,48.50
2023-05-04T04:23:21.572Z,50.50
2023-05-04T04:25:53.657Z,52.80
2023-05-04T04:28:23.888Z,51.30
2023-05-04T04:30:59.778Z,53.60
2023-05-04T04:33:29.336Z,54.50
2023-05-04T04:35:58.429Z,53.60
2023-05-04T04:38:27.938Z,50.50
2023-05-04T04:40:57.754Z,53.60
2023-05-04T04:43:27.764Z,50.90
2023-05-04T04:45:57.057Z,52.00
2023-05-04T04:48:31.796Z,51.20
2023-05-04T04:51:01.298Z,51.00
2023-05-04T04:53:30.797Z,51.20
2023-05-04T04:56:04.713Z,50.30
2023-05-04T04:58:34.816Z,54.30
2023-05-04T05:01:05.191Z,51.40
2023-05-04T05:03:33.952Z,54.70
2023-05-04T05:06:04.350Z,54.90
2023-05-04T05:08:33.573Z,56.90
2023-05-04T05:13:34.771Z,58.40
2023-05-04T05:16:06.296Z,60.10
2023-05-04T05:18:35.870Z,58.90
2023-05-04T05:21:05.400Z,58.70
2023-05-04T05:23:36.786Z,63.20
2023-05-04T05:26:05.720Z,63.10
2023-05-04T05:28:34.638Z,66.20
2023-05-04T05:31:24.570Z,67.00
2023-05-04T05:33:59.423Z,63.40
2023-05-04T05:36:31.699Z,64.00
2023-05-04T05:39:07.051Z,64.30
2023-05-04T05:41:56.075Z,61.30
2023-05-04T05:44:28.063Z,58.60
2023-05-04T05:47:02.208Z,52.80
2023-05-04T05:49:39.785Z,46.80
2023-05-04T05:52:21.801Z,48.10
2023-05-04T05:55:02.443Z,36.00
2023-05-04T05:57:51.329Z,26.40
2023-05-04T06:00:25.690Z,23.60
2023-05-04T06:03:08.164Z,22.80
2023-05-04T06:05:38.675Z,20.70
2023-05-04T06:10:44.937Z,18.90
2023-05-04T06:13:19.842Z,22.00
2023-05-04T06:16:00.122Z,18.10
2023-05-04T06:18:34.082Z,16.50
2023-05-04T06:21:06.280Z,16.50
2023-05-04T06:23:47.042Z,19.40
2023-05-04T06:26:33.145Z,26.40
2023-05-04T06:29:09.480Z,23.30
2023-05-04T06:31:52.918Z,20.00
2023-05-04T06:34:22.835Z,22.50
2023-05-04T06:36:56.615Z,22.20
2023-05-04T06:39:29.043Z,21.60
2023-05-04T06:42:01.636Z,14.50
2023-05-04T06:44:40.800Z,11.40
2023-05-04T06:47:18.698Z,13.40
2023-05-04T06:50:20.375Z,15.10
2023-05-04T06:53:13.147Z,15.30
2023-05-04T06:55:51.039Z,17.70
2023-05-04T06:58:23.639Z,15.80
2023-05-04T07:00:53.647Z,14.00
2023-05-04T07:03:32.420Z,13.70
2023-05-04T07:08:42.452Z,11.10
2023-05-04T07:11:12.335Z,10.10
2023-05-04T07:13:45.468Z,10.30
2023-05-04T07:16:23.411Z,9.60
2023-05-04T07:19:03.180Z,6.50
2023-05-04T07:21:42.475Z,5.80
2023-05-04T07:24:16.433Z,5.30
2023-05-04T07:26:48.193Z,11.10
2023-05-04T07:29:27.005Z,6.60
2023-05-04T07:32:12.088Z,5.40
2023-05-04T07:34:47.642Z,6.30
2023-05-04T07:37:28.011Z,6.20
2023-05-04T07:40:14.394Z,5.80
2023-05-04T07:42:57.348Z,3.80
2023-05-04T07:45:38.842Z,4.00
2023-05-04T07:48:30.879Z,3.30
2023-05-04T07:51:31.848Z,4.20
2023-05-04T07:54:26.438Z,4.20
2023-05-04T07:57:17.513Z,5.50
2023-05-04T07:59:59.252Z,6.00
2023-05-04T08:03:02.012Z,3.60
2023-05-04T08:09:01.509Z,3.60
2023-05-04T08:15:02.597Z,5.60
2023-05-04T08:18:12.973Z,5.10
2023-05-04T08:23:56.112Z,4.70
2023-05-04T08:27:07.021Z,4.00
2023-05-04T08:29:49.560Z,3.50
2023-05-04T08:32:48.534Z,4.60
2023-05-04T08:35:32.254Z,4.00
2023-05-04T08:38:07.708Z,3.60
2023-05-04T08:40:56.546Z,4.90
2023-05-04T08:43:48.355Z,4.60
2023-05-04T08:46:34.094Z,3.60
2023-05-04T08:49:12.238Z,3.40
2023-05-04T08:51:59.308Z,3.20
2023-05-04T08:54:36.075Z,4.30
2023-05-04T08:57:16.538Z,3.40
2023-05-04T08:59:59.955Z,3.60
2023-05-04T09:02:54.764Z,4.40
2023-05-04T09:05:25.326Z,2.90
2023-05-04T09:08:01.375Z,2.80
2023-05-04T09:10:37.866Z,3.00
2023-05-04T09:13:49.174Z,3.10
2023-05-04T09:16:38.677Z,3.20
2023-05-04T09:19:24.247Z,3.20
2023-05-04T09:21:59.149Z,3.00
2023-05-04T09:24:46.877Z,3.50
2023-05-04T09:27:20.637Z,2.90
2023-05-04T09:30:17.946Z,2.60
2023-05-04T09:33:03.629Z,3.10
2023-05-04T09:35:48.575Z,2.80
2023-05-04T09:38:35.061Z,2.70
2023-05-04T09:41:37.099Z,2.80
2023-05-04T09:44:55.035Z,3.80
2023-05-04T09:48:41.057Z,3.30
2023-05-04T09:51:26.975Z,3.40
2023-05-04T09:54:12.154Z,3.40
2023-05-04T09:57:02.033Z,3.20
2023-05-04T10:00:14.016Z,2.90
2023-05-04T10:02:46.520Z,2.80
2023-05-04T10:05:48.379Z,2.70
2023-05-04T10:09:12.477Z,3.40
2023-05-04T10:11:50.880Z,2.90
2023-05-04T10:14:42.097Z,3.30
2023-05-04T10:17:48.444Z,3.00
2023-05-04T10:20:31.987Z,3.30
2023-05-04T10:23:55.551Z,3.60
2023-05-04T10:27:00.075Z,3.00
2023-05-04T10:32:07.546Z,3.20
2023-05-04T10:34:44.578Z,3.40
2023-05-04T10:37:23.176Z,3.20
2023-05-04T10:40:17.233Z,3.50
2023-05-04T10:42:46.551Z,3.30
2023-05-04T10:45:24.321Z,3.00
2023-05-04T10:47:58.631Z,3.40
2023-05-04T10:50:31.487Z,3.40
2023-05-04T10:53:04.592Z,3.50
2023-05-04T10:56:10.744Z,3.00
2023-05-04T10:58:47.143Z,2.90
2023-05-04T11:01:24.264Z,3.30
2023-05-04T11:04:04.448Z,3.20
2023-05-04T11:06:42.898Z,3.20
2023-05-04T11:09:15.130Z,3.20
2023-05-04T11:11:58.195Z,3.10
2023-05-04T11:14:31.693Z,2.70
2023-05-04T11:17:19.576Z,3.00
2023-05-04T11:20:00.215Z,2.80
2023-05-04T11:22:32.803Z,3.30
2023-05-04T11:25:06.565Z,3.70
2023-05-04T11:28:14.337Z,3.10
2023-05-04T11:30:53.746Z,3.30
2023-05-04T11:33:31.153Z,3.30
2023-05-04T11:36:08.855Z,3.20
2023-05-04T11:38:46.966Z,2.60
2023-05-04T11:41:29.506Z,3.00
2023-05-04T11:44:12.867Z,2.80
2023-05-04T11:47:00.622Z,2.40
2023-05-04T11:49:42.377Z,3.00
2023-05-04T11:55:08.728Z,2.70
2023-05-04T11:58:21.788Z,2.70
2023-05-04T12:01:03.136Z,2.80
2023-05-04T12:03:52.021Z,2.60
2023-05-04T12:07:08.130Z,2.60
2023-05-04T12:09:59.403Z,2.60
2023-05-04T12:12:52.630Z,3.60
2023-05-04T12:15:46.232Z,3.20
2023-05-04T12:18:34.022Z,3.30
2023-05-04T12:21:28.852Z,3.00
2023-05-04T12:24:26.407Z,3.30
2023-05-04T12:26:57.680Z,3.40
2023-05-04T12:30:29.908Z,3.80
2023-05-04T12:33:25.867Z,3.40
2023-05-04T12:36:13.522Z,2.60
2023-05-04T12:38:52.931Z,3.10
2023-05-04T12:41:35.922Z,21.80
2023-05-04T12:44:29.662Z,2.80
2023-05-04T12:47:17.573Z,3.10
2023-05-04T12:50:11.063Z,2.80
2023-05-04T12:52:48.786Z,2.10
2023-05-04T12:55:39.753Z,2.20
2023-05-04T12:58:32.319Z,2.90
2023-05-04T13:01:06.192Z,3.20
2023-05-04T13:03:38.301Z,3.20
2023-05-04T13:06:14.283Z,2.50
2023-05-04T13:09:01.465Z,2.90
2023-05-04T13:14:50.868Z,2.50
2023-05-04T13:17:33.750Z,3.40
2023-05-04T13:20:32.598Z,2.90
2023-05-04T13:23:20.519Z,2.70
2023-05-04T13:25:56.146Z,2.30
2023-05-04T13:28:39.273Z,2.80
2023-05-04T13:31:53.453Z,2.60
2023-05-04T13:34:34.963Z,2.70
2023-05-04T13:37:28.011Z,2.50
2023-05-04T13:40:15.428Z,3.00
2023-05-04T13:43:21.738Z,2.40
2023-05-04T13:46:31.623Z,3.90
2023-05-04T13:49:12.783Z,2.90
2023-05-04T13:51:55.005Z,2.80
2023-05-04T13:54:52.043Z,2.90
2023-05-04T13:57:42.141Z,2.70
2023-05-04T14:00:54.053Z,2.80
2023-05-04T14:03:31.047Z,3.10
2023-05-04T14:06:08.348Z,3.00
2023-05-04T14:09:38.105Z,2.30
2023-05-04T14:12:20.063Z,2.40
2023-05-04T14:15:08.414Z,2.60
2023-05-04T14:18:27.706Z,2.40
2023-05-04T14:21:59.812Z,2.50
2023-05-04T14:28:33.622Z,2.20
2023-05-04T14:31:43.355Z,2.60
2023-05-04T14:34:23.123Z,2.80
2023-05-04T14:37:02.900Z,2.60
2023-05-04T14:42:50.093Z,2.50
2023-05-04T14:45:28.372Z,2.70
2023-05-04T14:48:35.392Z,2.30
2023-05-04T14:51:23.276Z,2.70
2023-05-04T14:54:19.114Z,2.80
2023-05-04T14:57:21.356Z,2.90
2023-05-04T15:00:00.471Z,3.00
2023-05-04T15:02:42.223Z,2.20
2023-05-04T15:05:20.819Z,2.50
2023-05-04T15:08:15.537Z,2.30
2023-05-04T15:10:59.722Z,2.60
2023-05-04T15:14:00.418Z,2.40
2023-05-04T15:16:44.438Z,2.70
2023-05-04T15:19:21.301Z,2.30
2023-05-04T15:22:02.854Z,2.30
2023-05-04T15:25:30.070Z,2.60
2023-05-04T15:29:25.603Z,2.80
2023-05-04T15:32:13.338Z,2.50
2023-05-04T15:35:28.750Z,2.40
2023-05-04T15:47:27.902Z,2.60
2023-05-04T15:52:24.919Z,2.40
2023-05-04T15:54:54.198Z,2.70
2023-05-04T15:57:22.538Z,2.60
2023-05-04T15:59:50.815Z,2.60
2023-05-04T16:02:19.349Z,2.80
2023-05-04T16:04:47.520Z,2.80
2023-05-04T16:07:21.094Z,2.50
2023-05-04T16:09:49.421Z,2.60
2023-05-04T16:12:21.033Z,2.10
2023-05-04T16:14:50.578Z,2.10
2023-05-04T16:17:18.577Z,2.20
2023-05-04T16:19:46.612Z,2.80
2023-05-04T16:22:15.045Z,2.20
2023-05-04T16:24:44.035Z,2.90
2023-05-04T16:27:12.645Z,2.80
2023-05-04T16:29:41.522Z,2.90
2023-05-04T16:32:10.059Z,2.40
2023-05-04T16:34:40.517Z,2.20
2023-05-04T16:37:10.822Z,2.40
2023-05-04T16:39:39.753Z,2.20
2023-05-04T16:42:10.882Z,2.20
2023-05-04T16:44:42.712Z,2.80
2023-05-04T16:47:14.601Z,2.90
2023-05-04T16:49:52.851Z,2.60
2023-05-04T16:52:25.099Z,2.80
2023-05-04T16:55:04.007Z,2.20
2023-05-04T16:57:59.601Z,2.10
2023-05-04T17:01:14.682Z,2.10
2023-05-04T17:04:05.579Z,2.30
2023-05-04T17:08:00.087Z,2.50
2023-05-04T17:10:32.730Z,1.90
2023-05-04T17:19:04.380Z,2.70
2023-05-04T17:21:59.017Z,2.60
2023-05-04T17:24:36.853Z,3.60
2023-05-04T17:27:05.963Z,2.60
2023-05-04T17:29:43.803Z,2.40
2023-05-04T17:32:28.580Z,2.30
2023-05-04T17:35:24.576Z,2.50
2023-05-04T17:38:18.135Z,2.20
2023-05-04T17:41:23.081Z,2.30
2023-05-04T17:44:02.574Z,3.10
2023-05-04T17:46:38.946Z,2.90
2023-05-04T17:49:13.055Z,2.80
2023-05-04T17:55:03.004Z,2.80
2023-05-04T17:57:37.909Z,3.30
2023-05-04T18:00:11.308Z,4.00
2023-05-04T18:02:46.643Z,3.80
2023-05-04T18:05:24.998Z,3.90
2023-05-04T18:08:10.395Z,4.20
2023-05-04T18:10:54.532Z,3.50
2023-05-04T18:14:28.703Z,4.30
2023-05-04T18:17:32.922Z,3.50
2023-05-04T18:20:13.892Z,4.50
2023-05-04T18:23:31.174Z,8.90
2023-05-04T18:26:54.665Z,7.50
2023-05-04T18:29:52.656Z,9.60
2023-05-04T18:33:00.199Z,9.70
2023-05-04T18:35:36.568Z,10.40
2023-05-04T18:38:26.454Z,9.80
2023-05-04T18:41:07.361Z,10.20
2023-05-04T18:44:04.055Z,10.70
2023-05-04T18:47:06.432Z,12.00
2023-05-04T18:50:00.768Z,10.40
2023-05-04T18:53:08.374Z,12.20
2023-05-04T18:56:29.882Z,13.70
2023-05-04T18:59:27.711Z,18.50
2023-05-04T19:02:40.717Z,19.80
2023-05-04T19:05:40.638Z,63.50
2023-05-04T19:08:40.346Z,29.60
2023-05-04T19:11:26.994Z,22.60
2023-05-04T19:14:20.449Z,20.30
2023-05-04T19:17:01.660Z,20.60
2023-05-04T19:20:31.353Z,19.90
2023-05-04T19:23:58.936Z,18.80
2023-05-04T19:26:44.852Z,19.30
2023-05-04T19:29:37.838Z,23.10
2023-05-04T19:32:40.887Z,23.50
2023-05-04T19:35:51.124Z,28.60
2023-05-04T19:39:02.362Z,37.20
2023-05-04T19:42:01.154Z,28.70
2023-05-04T19:45:10.889Z,28.60
2023-05-04T19:48:17.418Z,25.00
2023-05-04T19:51:28.694Z,27.70
2023-05-04T19:54:16.475Z,26.40
2023-05-04T19:57:03.470Z,26.60
2023-05-04T19:59:57.533Z,24.90
2023-05-04T20:02:57.160Z,28.70
2023-05-04T20:06:01.297Z,30.10
2023-05-04T20:09:21.092Z,28.80
2023-05-04T20:12:23.491Z,23.70
2023-05-04T20:15:06.539Z,24.80
2023-05-04T20:18:06.969Z,22.80
2023-05-04T20:21:16.794Z,20.50
2023-05-04T20:23:51.745Z,19.70
2023-05-04T20:26:33.594Z,18.50
2023-05-04T20:29:13.218Z,18.40
2023-05-04T20:32:05.917Z,18.50
2023-05-04T20:34:54.733Z,19.00
2023-05-04T20:37:41.965Z,19.70
2023-05-04T20:40:41.895Z,20.80
2023-05-04T20:43:26.174Z,22.20
2023-05-04T20:46:10.919Z,22.60
2023-05-04T20:49:07.586Z,23.60
2023-05-04T20:52:09.082Z,23.10
2023-05-04T20:54:58.344Z,25.20
2023-05-04T20:57:37.468Z,23.80
2023-05-04T21:00:34.609Z,26.50
2023-05-04T21:03:23.488Z,24.80
2023-05-04T21:06:12.975Z,24.80
2023-05-04T21:08:52.757Z,22.60
2023-05-04T21:11:21.543Z,21.10
2023-05-04T21:13:56.170Z,20.50
2023-05-04T21:16:46.396Z,18.80
2023-05-04T21:19:33.883Z,16.50
2023-05-04T21:22:13.435Z,15.00
2023-05-04T21:24:51.524Z,14.90
2023-05-04T21:27:35.683Z,14.00
2023-05-04T21:30:09.942Z,14.20
2023-05-04T21:32:42.510Z,14.20
2023-05-04T21:35:16.145Z,12.60
2023-05-04T21:37:46.309Z,12.50
2023-05-04T21:40:17.333Z,12.50
2023-05-04T21:42:49.476Z,10.80
2023-05-04T21:45:23.182Z,11.00
2023-05-04T21:47:52.749Z,10.70
2023-05-04T21:50:23.922Z,10.20
2023-05-04T21:52:53.006Z,10.60
2023-05-04T21:55:22.008Z,11.70
2023-05-04T21:57:53.435Z,11.50
2023-05-04T22:00:25.142Z,12.40
2023-05-04T22:05:26.548Z,14.80
2023-05-04T22:07:59.770Z,19.30
2023-05-04T22:10:36.602Z,20.50
2023-05-04T22:13:13.254Z,20.60
2023-05-04T22:15:49.993Z,20.60
2023-05-04T22:18:23.471Z,22.50
2023-05-04T22:21:04.076Z,22.40
2023-05-04T22:23:38.073Z,22.20
2023-05-04T22:26:07.421Z,21.60
2023-05-04T22:28:36.074Z,20.90
2023-05-04T22:31:07.034Z,20.30
2023-05-04T22:33:35.814Z,22.40
2023-05-04T22:36:12.453Z,22.50
2023-05-04T22:38:43.610Z,23.40
2023-05-04T22:41:16.051Z,22.10
2023-05-04T22:43:47.460Z,22.80
2023-05-04T22:46:18.981Z,21.30
2023-05-04T22:48:47.633Z,21.80
2023-05-04T22:51:16.718Z,21.10
2023-05-04T22:53:45.908Z,18.70
2023-05-04T22:56:16.971Z,18.30
2023-05-04T22:58:46.307Z,18.70
2023-05-04T23:01:18.292Z,21.20
2023-05-04T23:03:48.363Z,19.30
2023-05-04T23:06:17.794Z,17.30
2023-05-04T23:08:46.928Z,15.70
2023-05-04T23:11:34.232Z,15.60
2023-05-04T23:14:05.610Z,15.40
2023-05-04T23:16:38.091Z,15.90
2023-05-04T23:19:09.506Z,15.60
2023-05-04T23:21:43.060Z,14.60
2023-05-04T23:24:15.493Z,14.30
2023-05-04T23:26:44.662Z,14.30
2023-05-04T23:29:16.635Z,15.40
2023-05-04T23:31:48.979Z,15.30
2023-05-04T23:34:17.620Z,14.90
2023-05-04T23:36:46.546Z,14.70
2023-05-04T23:39:16.395Z,15.00
2023-05-04T23:41:45.105Z,16.00
2023-05-04T23:44:16.407Z,14.20
2023-05-04T23:46:50.680Z,15.80
2023-05-04T23:49:19.718Z,16.60
2023-05-04T23:51:48.658Z,16.20
2023-05-04T23:54:19.427Z,15.80
2023-05-04T23:56:48.574Z,16.30
2023-05-04T23:59:23.430Z,15.50
